sensor_id;sensor_type;location;lat;lon;timestamp;P1;durP1;ratioP1;P2;durP2;ratioP2
21543;SDS011;10933;50.754;11.508;2022-09-09T00:01:57;2.20;;;2.10;;
21543;SDS011;10933;50.754;11.508;2022-09-09T00:04:58;3.63;;;2.23;;
21543;SDS011;10933;50.754;11.508;2022-09-09T00:07:44;2.30;;;2.17;;
21543;SDS011;10933;50.754;11.508;2022-09-09T00:21:19;1.57;;;1.47;;
21543;SDS011;10933;50.754;11.508;2022-09-09T00:23:53;2.33;;;1.63;;
21543;SDS011;10933;50.754;11.508;2022-09-09T00:26:34;1.90;;;1.77;;
21543;SDS011;10933;50.754;11.508;2022-09-09T00:32:12;5.33;;;1.80;;
21543;SDS011;10933;50.754;11.508;2022-09-09T00:35:24;2.30;;;2.10;;
21543;SDS011;10933;50.754;11.508;2022-09-09T00:38:09;2.67;;;1.87;;
21543;SDS011;10933;50.754;11.508;2022-09-09T00:40:41;2.03;;;1.93;;
21543;SDS011;10933;50.754;11.508;2022-09-09T00:43:40;2.13;;;1.80;;
21543;SDS011;10933;50.754;11.508;2022-09-09T00:59:52;2.97;;;1.63;;
21543;SDS011;10933;50.754;11.508;2022-09-09T01:05:21;3.23;;;2.00;;
21543;SDS011;10933;50.754;11.508;2022-09-09T01:11:05;3.70;;;2.07;;
21543;SDS011;10933;50.754;11.508;2022-09-09T01:13:45;2.03;;;1.80;;
21543;SDS011;10933;50.754;11.508;2022-09-09T01:16:13;4.13;;;1.60;;
21543;SDS011;10933;50.754;11.508;2022-09-09T01:18:46;2.63;;;1.80;;
21543;SDS011;10933;50.754;11.508;2022-09-09T01:21:20;7.17;;;1.77;;
21543;SDS011;10933;50.754;11.508;2022-09-09T01:26:46;1.77;;;1.67;;
21543;SDS011;10933;50.754;11.508;2022-09-09T01:29:14;1.83;;;1.73;;
21543;SDS011;10933;50.754;11.508;2022-09-09T01:31:51;1.77;;;1.67;;
21543;SDS011;10933;50.754;11.508;2022-09-09T01:34:19;1.80;;;1.70;;
21543;SDS011;10933;50.754;11.508;2022-09-09T01:39:23;2.10;;;1.50;;
21543;SDS011;10933;50.754;11.508;2022-09-09T01:41:49;2.03;;;1.90;;
21543;SDS011;10933;50.754;11.508;2022-09-09T01:44:15;4.60;;;1.80;;
21543;SDS011;10933;50.754;11.508;2022-09-09T01:46:43;1.70;;;1.60;;
21543;SDS011;10933;50.754;11.508;2022-09-09T01:49:09;2.10;;;2.00;;
21543;SDS011;10933;50.754;11.508;2022-09-09T01:51:36;2.23;;;1.90;;
21543;SDS011;10933;50.754;11.508;2022-09-09T01:54:04;2.03;;;1.80;;
21543;SDS011;10933;50.754;11.508;2022-09-09T01:59:13;2.53;;;1.80;;
21543;SDS011;10933;50.754;11.508;2022-09-09T02:04:48;3.23;;;1.83;;
21543;SDS011;10933;50.754;11.508;2022-09-09T02:07:29;4.33;;;1.80;;
21543;SDS011;10933;50.754;11.508;2022-09-09T02:12:40;6.33;;;1.90;;
21543;SDS011;10933;50.754;11.508;2022-09-09T02:15:16;1.87;;;1.70;;
21543;SDS011;10933;50.754;11.508;2022-09-09T02:18:04;2.00;;;1.80;;
21543;SDS011;10933;50.754;11.508;2022-09-09T02:20:34;2.90;;;1.83;;
21543;SDS011;10933;50.754;11.508;2022-09-09T02:23:03;3.73;;;1.70;;
21543;SDS011;10933;50.754;11.508;2022-09-09T02:25:31;2.23;;;2.00;;
21543;SDS011;10933;50.754;11.508;2022-09-09T02:28:00;1.87;;;1.77;;
21543;SDS011;10933;50.754;11.508;2022-09-09T02:30:30;2.20;;;2.00;;
21543;SDS011;10933;50.754;11.508;2022-09-09T02:32:59;2.40;;;2.20;;
21543;SDS011;10933;50.754;11.508;2022-09-09T02:35:28;2.30;;;2.10;;
21543;SDS011;10933;50.754;11.508;2022-09-09T02:37:58;2.20;;;2.10;;
21543;SDS011;10933;50.754;11.508;2022-09-09T02:40:27;4.03;;;2.00;;
21543;SDS011;10933;50.754;11.508;2022-09-09T02:42:54;3.97;;;2.23;;
21543;SDS011;10933;50.754;11.508;2022-09-09T02:45:22;3.17;;;1.90;;
21543;SDS011;10933;50.754;11.508;2022-09-09T02:50:35;3.20;;;2.37;;
21543;SDS011;10933;50.754;11.508;2022-09-09T02:53:17;4.40;;;3.80;;
21543;SDS011;10933;50.754;11.508;2022-09-09T02:56:21;2.17;;;2.03;;
21543;SDS011;10933;50.754;11.508;2022-09-09T02:58:50;2.10;;;1.60;;
21543;SDS011;10933;50.754;11.508;2022-09-09T03:01:17;3.63;;;1.83;;
21543;SDS011;10933;50.754;11.508;2022-09-09T03:03:43;2.00;;;1.80;;
21543;SDS011;10933;50.754;11.508;2022-09-09T03:06:09;2.03;;;1.93;;
21543;SDS011;10933;50.754;11.508;2022-09-09T03:08:36;2.50;;;2.07;;
21543;SDS011;10933;50.754;11.508;2022-09-09T03:11:03;5.30;;;2.30;;
21543;SDS011;10933;50.754;11.508;2022-09-09T03:13:29;2.00;;;1.90;;
21543;SDS011;10933;50.754;11.508;2022-09-09T03:15:55;7.77;;;2.30;;
21543;SDS011;10933;50.754;11.508;2022-09-09T03:18:21;3.83;;;2.53;;
21543;SDS011;10933;50.754;11.508;2022-09-09T03:20:48;4.17;;;3.83;;
21543;SDS011;10933;50.754;11.508;2022-09-09T03:23:14;7.57;;;4.57;;
21543;SDS011;10933;50.754;11.508;2022-09-09T03:25:46;4.57;;;2.50;;
21543;SDS011;10933;50.754;11.508;2022-09-09T03:28:13;5.77;;;2.60;;
21543;SDS011;10933;50.754;11.508;2022-09-09T03:30:40;6.63;;;2.60;;
21543;SDS011;10933;50.754;11.508;2022-09-09T03:33:06;6.57;;;2.27;;
21543;SDS011;10933;50.754;11.508;2022-09-09T03:35:32;3.20;;;2.77;;
21543;SDS011;10933;50.754;11.508;2022-09-09T03:37:58;6.97;;;3.00;;
21543;SDS011;10933;50.754;11.508;2022-09-09T03:40:25;7.20;;;3.67;;
21543;SDS011;10933;50.754;11.508;2022-09-09T03:42:51;8.90;;;5.60;;
21543;SDS011;10933;50.754;11.508;2022-09-09T03:45:17;5.60;;;5.20;;
21543;SDS011;10933;50.754;11.508;2022-09-09T03:47:44;8.50;;;7.90;;
21543;SDS011;10933;50.754;11.508;2022-09-09T03:50:10;8.87;;;8.20;;
21543;SDS011;10933;50.754;11.508;2022-09-09T03:52:37;11.03;;;9.80;;
21543;SDS011;10933;50.754;11.508;2022-09-09T03:55:06;9.07;;;8.37;;
21543;SDS011;10933;50.754;11.508;2022-09-09T03:57:33;6.67;;;5.70;;
21543;SDS011;10933;50.754;11.508;2022-09-09T04:00:03;7.23;;;3.20;;
21543;SDS011;10933;50.754;11.508;2022-09-09T04:02:30;4.20;;;2.60;;
21543;SDS011;10933;50.754;11.508;2022-09-09T04:04:56;4.17;;;2.77;;
21543;SDS011;10933;50.754;11.508;2022-09-09T04:07:23;3.33;;;3.03;;
21543;SDS011;10933;50.754;11.508;2022-09-09T04:09:49;3.80;;;3.50;;
21543;SDS011;10933;50.754;11.508;2022-09-09T04:12:15;5.10;;;3.17;;
21543;SDS011;10933;50.754;11.508;2022-09-09T04:14:42;5.50;;;3.23;;
21543;SDS011;10933;50.754;11.508;2022-09-09T04:17:08;5.83;;;4.60;;
21543;SDS011;10933;50.754;11.508;2022-09-09T04:19:35;4.77;;;3.47;;
21543;SDS011;10933;50.754;11.508;2022-09-09T04:22:01;6.47;;;2.97;;
21543;SDS011;10933;50.754;11.508;2022-09-09T04:24:27;2.47;;;2.27;;
21543;SDS011;10933;50.754;11.508;2022-09-09T04:26:54;6.67;;;3.47;;
21543;SDS011;10933;50.754;11.508;2022-09-09T04:29:20;6.03;;;3.00;;
21543;SDS011;10933;50.754;11.508;2022-09-09T04:31:46;4.03;;;2.37;;
21543;SDS011;10933;50.754;11.508;2022-09-09T04:34:12;7.67;;;2.30;;
21543;SDS011;10933;50.754;11.508;2022-09-09T04:36:38;6.60;;;3.47;;
21543;SDS011;10933;50.754;11.508;2022-09-09T04:39:05;4.37;;;3.57;;
21543;SDS011;10933;50.754;11.508;2022-09-09T04:41:32;5.80;;;4.27;;
21543;SDS011;10933;50.754;11.508;2022-09-09T04:43:58;4.50;;;4.20;;
21543;SDS011;10933;50.754;11.508;2022-09-09T04:46:25;5.27;;;4.80;;
21543;SDS011;10933;50.754;11.508;2022-09-09T04:48:52;5.50;;;4.77;;
21543;SDS011;10933;50.754;11.508;2022-09-09T04:51:18;4.13;;;3.70;;
21543;SDS011;10933;50.754;11.508;2022-09-09T04:53:44;3.83;;;3.63;;
21543;SDS011;10933;50.754;11.508;2022-09-09T04:56:13;4.30;;;3.90;;
21543;SDS011;10933;50.754;11.508;2022-09-09T04:58:40;3.83;;;3.53;;
21543;SDS011;10933;50.754;11.508;2022-09-09T05:01:11;4.10;;;3.60;;
21543;SDS011;10933;50.754;11.508;2022-09-09T05:03:40;4.10;;;3.87;;
21543;SDS011;10933;50.754;11.508;2022-09-09T05:06:08;4.03;;;3.50;;
21543;SDS011;10933;50.754;11.508;2022-09-09T05:08:39;3.37;;;3.17;;
21543;SDS011;10933;50.754;11.508;2022-09-09T05:11:16;3.67;;;3.37;;
21543;SDS011;10933;50.754;11.508;2022-09-09T05:13:42;3.53;;;3.33;;
21543;SDS011;10933;50.754;11.508;2022-09-09T05:16:09;4.10;;;3.53;;
21543;SDS011;10933;50.754;11.508;2022-09-09T05:18:36;6.77;;;3.90;;
21543;SDS011;10933;50.754;11.508;2022-09-09T05:21:05;3.70;;;3.40;;
21543;SDS011;10933;50.754;11.508;2022-09-09T05:23:35;14.13;;;4.03;;
21543;SDS011;10933;50.754;11.508;2022-09-09T05:26:02;4.83;;;3.50;;
21543;SDS011;10933;50.754;11.508;2022-09-09T05:28:29;4.83;;;3.60;;
21543;SDS011;10933;50.754;11.508;2022-09-09T05:30:59;4.67;;;3.67;;
21543;SDS011;10933;50.754;11.508;2022-09-09T05:33:29;7.17;;;4.07;;
21543;SDS011;10933;50.754;11.508;2022-09-09T05:36:03;19.13;;;4.13;;
21543;SDS011;10933;50.754;11.508;2022-09-09T05:38:31;4.70;;;3.33;;
21543;SDS011;10933;50.754;11.508;2022-09-09T05:40:58;3.07;;;2.77;;
21543;SDS011;10933;50.754;11.508;2022-09-09T05:43:26;8.57;;;4.87;;
21543;SDS011;10933;50.754;11.508;2022-09-09T05:46:07;4.10;;;3.50;;
21543;SDS011;10933;50.754;11.508;2022-09-09T05:48:35;6.80;;;3.70;;
21543;SDS011;10933;50.754;11.508;2022-09-09T05:51:03;3.87;;;3.57;;
21543;SDS011;10933;50.754;11.508;2022-09-09T05:53:31;4.30;;;3.53;;
21543;SDS011;10933;50.754;11.508;2022-09-09T05:56:09;5.28;;;3.13;;
21543;SDS011;10933;50.754;11.508;2022-09-09T05:58:43;9.02;;;3.67;;
21543;SDS011;10933;50.754;11.508;2022-09-09T06:01:10;4.13;;;3.13;;
21543;SDS011;10933;50.754;11.508;2022-09-09T06:03:39;3.58;;;3.38;;
21543;SDS011;10933;50.754;11.508;2022-09-09T06:06:07;7.03;;;2.97;;
21543;SDS011;10933;50.754;11.508;2022-09-09T06:08:36;3.30;;;3.10;;
21543;SDS011;10933;50.754;11.508;2022-09-09T06:11:04;3.17;;;3.00;;
21543;SDS011;10933;50.754;11.508;2022-09-09T06:13:33;6.03;;;3.03;;
21543;SDS011;10933;50.754;11.508;2022-09-09T06:16:00;3.53;;;3.22;;
21543;SDS011;10933;50.754;11.508;2022-09-09T06:18:26;4.68;;;3.08;;
21543;SDS011;10933;50.754;11.508;2022-09-09T06:20:56;2.90;;;2.70;;
21543;SDS011;10933;50.754;11.508;2022-09-09T06:23:24;3.03;;;2.70;;
21543;SDS011;10933;50.754;11.508;2022-09-09T06:25:51;7.85;;;3.10;;
21543;SDS011;10933;50.754;11.508;2022-09-09T06:28:34;2.47;;;2.28;;
21543;SDS011;10933;50.754;11.508;2022-09-09T06:31:03;3.65;;;2.97;;
21543;SDS011;10933;50.754;11.508;2022-09-09T06:33:31;2.40;;;2.20;;
21543;SDS011;10933;50.754;11.508;2022-09-09T06:36:02;6.70;;;2.80;;
21543;SDS011;10933;50.754;11.508;2022-09-09T06:38:31;4.60;;;3.88;;
21543;SDS011;10933;50.754;11.508;2022-09-09T06:40:58;2.92;;;2.70;;
21543;SDS011;10933;50.754;11.508;2022-09-09T06:43:25;4.53;;;2.83;;
21543;SDS011;10933;50.754;11.508;2022-09-09T06:45:58;3.17;;;2.55;;
21543;SDS011;10933;50.754;11.508;2022-09-09T06:48:26;2.60;;;2.40;;
21543;SDS011;10933;50.754;11.508;2022-09-09T06:53:36;2.85;;;2.38;;
21543;SDS011;10933;50.754;11.508;2022-09-09T06:58:41;2.65;;;2.42;;
21543;SDS011;10933;50.754;11.508;2022-09-09T07:01:09;9.32;;;3.28;;
21543;SDS011;10933;50.754;11.508;2022-09-09T07:03:38;4.78;;;2.67;;
21543;SDS011;10933;50.754;11.508;2022-09-09T07:06:05;7.63;;;2.63;;
21543;SDS011;10933;50.754;11.508;2022-09-09T07:08:32;8.63;;;2.58;;
21543;SDS011;10933;50.754;11.508;2022-09-09T07:11:05;3.67;;;2.20;;
21543;SDS011;10933;50.754;11.508;2022-09-09T07:13:33;9.48;;;2.65;;
21543;SDS011;10933;50.754;11.508;2022-09-09T07:16:06;8.65;;;2.90;;
21543;SDS011;10933;50.754;11.508;2022-09-09T07:18:34;11.25;;;2.67;;
21543;SDS011;10933;50.754;11.508;2022-09-09T07:21:01;4.13;;;2.40;;
21543;SDS011;10933;50.754;11.508;2022-09-09T07:23:28;2.42;;;2.20;;
21543;SDS011;10933;50.754;11.508;2022-09-09T07:25:55;2.42;;;2.22;;
21543;SDS011;10933;50.754;11.508;2022-09-09T07:28:23;2.90;;;1.85;;
21543;SDS011;10933;50.754;11.508;2022-09-09T07:30:57;2.88;;;1.48;;
21543;SDS011;10933;50.754;11.508;2022-09-09T07:33:26;1.73;;;1.42;;
21543;SDS011;10933;50.754;11.508;2022-09-09T07:35:52;1.70;;;1.52;;
21543;SDS011;10933;50.754;11.508;2022-09-09T07:38:19;1.67;;;1.58;;
21543;SDS011;10933;50.754;11.508;2022-09-09T07:40:46;10.90;;;1.88;;
21543;SDS011;10933;50.754;11.508;2022-09-09T07:43:12;4.30;;;1.23;;
21543;SDS011;10933;50.754;11.508;2022-09-09T07:45:39;6.25;;;1.98;;
21543;SDS011;10933;50.754;11.508;2022-09-09T07:48:06;3.42;;;1.40;;
21543;SDS011;10933;50.754;11.508;2022-09-09T07:50:33;3.95;;;1.98;;
21543;SDS011;10933;50.754;11.508;2022-09-09T07:52:59;7.32;;;1.80;;
21543;SDS011;10933;50.754;11.508;2022-09-09T07:55:27;4.93;;;1.70;;
21543;SDS011;10933;50.754;11.508;2022-09-09T07:57:53;2.38;;;1.30;;
21543;SDS011;10933;50.754;11.508;2022-09-09T08:00:20;3.20;;;1.15;;
21543;SDS011;10933;50.754;11.508;2022-09-09T08:02:47;1.85;;;1.10;;
21543;SDS011;10933;50.754;11.508;2022-09-09T08:05:13;3.30;;;1.30;;
21543;SDS011;10933;50.754;11.508;2022-09-09T08:07:40;2.35;;;1.20;;
21543;SDS011;10933;50.754;11.508;2022-09-09T08:10:06;2.42;;;1.40;;
21543;SDS011;10933;50.754;11.508;2022-09-09T08:12:32;2.55;;;1.38;;
21543;SDS011;10933;50.754;11.508;2022-09-09T08:14:59;1.40;;;0.82;;
21543;SDS011;10933;50.754;11.508;2022-09-09T08:17:25;1.42;;;1.00;;
21543;SDS011;10933;50.754;11.508;2022-09-09T08:19:51;2.72;;;1.27;;
21543;SDS011;10933;50.754;11.508;2022-09-09T08:22:17;2.38;;;1.17;;
21543;SDS011;10933;50.754;11.508;2022-09-09T08:24:43;1.27;;;0.57;;
21543;SDS011;10933;50.754;11.508;2022-09-09T08:27:09;1.35;;;0.60;;
21543;SDS011;10933;50.754;11.508;2022-09-09T08:29:35;2.45;;;0.80;;
21543;SDS011;10933;50.754;11.508;2022-09-09T08:32:02;2.72;;;0.70;;
21543;SDS011;10933;50.754;11.508;2022-09-09T08:34:29;1.58;;;0.50;;
21543;SDS011;10933;50.754;11.508;2022-09-09T08:36:56;1.67;;;0.80;;
21543;SDS011;10933;50.754;11.508;2022-09-09T08:39:22;1.20;;;0.50;;
21543;SDS011;10933;50.754;11.508;2022-09-09T08:52:59;1.42;;;0.50;;
21543;SDS011;10933;50.754;11.508;2022-09-09T09:06:17;1.73;;;0.40;;
21543;SDS011;10933;50.754;11.508;2022-09-09T09:11:44;1.20;;;0.60;;
21543;SDS011;10933;50.754;11.508;2022-09-09T09:14:23;1.38;;;0.70;;
21543;SDS011;10933;50.754;11.508;2022-09-09T09:17:00;2.95;;;0.73;;
21543;SDS011;10933;50.754;11.508;2022-09-09T09:19:58;1.08;;;0.50;;
21543;SDS011;10933;50.754;11.508;2022-09-09T09:25:32;0.80;;;0.60;;
21543;SDS011;10933;50.754;11.508;2022-09-09T09:30:50;1.33;;;0.60;;
21543;SDS011;10933;50.754;11.508;2022-09-09T09:33:27;1.20;;;0.60;;
21543;SDS011;10933;50.754;11.508;2022-09-09T09:36:15;1.35;;;0.45;;
21543;SDS011;10933;50.754;11.508;2022-09-09T09:38:55;2.38;;;0.80;;
21543;SDS011;10933;50.754;11.508;2022-09-09T09:41:31;2.53;;;0.50;;
21543;SDS011;10933;50.754;11.508;2022-09-09T09:44:00;2.22;;;0.75;;
21543;SDS011;10933;50.754;11.508;2022-09-09T09:46:27;1.65;;;0.60;;
21543;SDS011;10933;50.754;11.508;2022-09-09T09:49:01;2.67;;;0.60;;
21543;SDS011;10933;50.754;11.508;2022-09-09T09:51:30;2.22;;;0.60;;
21543;SDS011;10933;50.754;11.508;2022-09-09T09:54:41;2.13;;;0.70;;
21543;SDS011;10933;50.754;11.508;2022-09-09T09:56:53;2.50;;;0.60;;
21543;SDS011;10933;50.754;11.508;2022-09-09T10:01:47;1.48;;;0.73;;
21543;SDS011;10933;50.754;11.508;2022-09-09T10:04:15;1.35;;;0.50;;
21543;SDS011;10933;50.754;11.508;2022-09-09T10:06:44;1.55;;;0.50;;
21543;SDS011;10933;50.754;11.508;2022-09-09T10:09:29;1.05;;;0.60;;
21543;SDS011;10933;50.754;11.508;2022-09-09T10:15:02;3.63;;;0.60;;
21543;SDS011;10933;50.754;11.508;2022-09-09T10:23:21;1.30;;;0.60;;
21543;SDS011;10933;50.754;11.508;2022-09-09T10:26:11;1.38;;;0.60;;
21543;SDS011;10933;50.754;11.508;2022-09-09T10:36:36;0.95;;;0.57;;
21543;SDS011;10933;50.754;11.508;2022-09-09T10:44:31;1.02;;;0.55;;
21543;SDS011;10933;50.754;11.508;2022-09-09T10:50:27;1.30;;;0.65;;
21543;SDS011;10933;50.754;11.508;2022-09-09T10:53:22;1.80;;;0.57;;
21543;SDS011;10933;50.754;11.508;2022-09-09T10:55:53;0.93;;;0.47;;
21543;SDS011;10933;50.754;11.508;2022-09-09T10:58:44;1.92;;;0.50;;
21543;SDS011;10933;50.754;11.508;2022-09-09T11:01:25;1.15;;;0.50;;
21543;SDS011;10933;50.754;11.508;2022-09-09T11:04:08;1.02;;;0.43;;
21543;SDS011;10933;50.754;11.508;2022-09-09T11:06:39;0.88;;;0.43;;
21543;SDS011;10933;50.754;11.508;2022-09-09T11:09:22;1.45;;;0.40;;
21543;SDS011;10933;50.754;11.508;2022-09-09T11:11:55;1.25;;;0.50;;
21543;SDS011;10933;50.754;11.508;2022-09-09T11:14:36;2.28;;;0.50;;
21543;SDS011;10933;50.754;11.508;2022-09-09T11:19:52;1.88;;;0.60;;
21543;SDS011;10933;50.754;11.508;2022-09-09T11:30:16;3.08;;;0.60;;
21543;SDS011;10933;50.754;11.508;2022-09-09T11:38:32;0.60;;;0.40;;
21543;SDS011;10933;50.754;11.508;2022-09-09T11:41:04;1.85;;;0.60;;
21543;SDS011;10933;50.754;11.508;2022-09-09T11:43:44;1.58;;;0.52;;
21543;SDS011;10933;50.754;11.508;2022-09-09T11:46:13;2.58;;;0.47;;
21543;SDS011;10933;50.754;11.508;2022-09-09T11:48:46;1.52;;;0.47;;
21543;SDS011;10933;50.754;11.508;2022-09-09T11:53:59;1.00;;;0.50;;
21543;SDS011;10933;50.754;11.508;2022-09-09T11:56:48;2.13;;;0.47;;
21543;SDS011;10933;50.754;11.508;2022-09-09T11:59:24;1.35;;;0.43;;
21543;SDS011;10933;50.754;11.508;2022-09-09T12:02:03;0.98;;;0.30;;
21543;SDS011;10933;50.754;11.508;2022-09-09T12:04:53;1.83;;;0.30;;
21543;SDS011;10933;50.754;11.508;2022-09-09T12:07:29;1.42;;;0.30;;
21543;SDS011;10933;50.754;11.508;2022-09-09T12:12:29;1.15;;;0.50;;
21543;SDS011;10933;50.754;11.508;2022-09-09T12:15:16;1.05;;;0.40;;
21543;SDS011;10933;50.754;11.508;2022-09-09T12:25:29;0.82;;;0.40;;
21543;SDS011;10933;50.754;11.508;2022-09-09T12:28:21;0.80;;;0.40;;
21543;SDS011;10933;50.754;11.508;2022-09-09T12:31:15;0.95;;;0.30;;
21543;SDS011;10933;50.754;11.508;2022-09-09T12:33:48;0.95;;;0.30;;
21543;SDS011;10933;50.754;11.508;2022-09-09T12:36:27;0.70;;;0.40;;
21543;SDS011;10933;50.754;11.508;2022-09-09T12:38:56;1.05;;;0.40;;
21543;SDS011;10933;50.754;11.508;2022-09-09T12:41:35;1.42;;;0.70;;
21543;SDS011;10933;50.754;11.508;2022-09-09T12:44:05;1.45;;;0.88;;
21543;SDS011;10933;50.754;11.508;2022-09-09T12:49:01;1.73;;;0.70;;
21543;SDS011;10933;50.754;11.508;2022-09-09T12:51:29;1.45;;;0.70;;
21543;SDS011;10933;50.754;11.508;2022-09-09T12:53:58;2.47;;;2.05;;
21543;SDS011;10933;50.754;11.508;2022-09-09T12:56:25;0.90;;;0.60;;
21543;SDS011;10933;50.754;11.508;2022-09-09T12:58:54;1.92;;;1.10;;
21543;SDS011;10933;50.754;11.508;2022-09-09T13:01:28;1.73;;;0.60;;
21543;SDS011;10933;50.754;11.508;2022-09-09T13:03:57;2.08;;;0.70;;
21543;SDS011;10933;50.754;11.508;2022-09-09T13:06:24;1.23;;;0.60;;
21543;SDS011;10933;50.754;11.508;2022-09-09T13:08:55;2.05;;;0.60;;
21543;SDS011;10933;50.754;11.508;2022-09-09T13:11:31;1.85;;;1.52;;
21543;SDS011;10933;50.754;11.508;2022-09-09T13:14:03;2.25;;;0.70;;
21543;SDS011;10933;50.754;11.508;2022-09-09T13:16:32;1.50;;;0.50;;
21543;SDS011;10933;50.754;11.508;2022-09-09T13:19:00;0.90;;;0.60;;
21543;SDS011;10933;50.754;11.508;2022-09-09T13:21:33;3.47;;;1.40;;
21543;SDS011;10933;50.754;11.508;2022-09-09T13:24:02;2.50;;;0.70;;
21543;SDS011;10933;50.754;11.508;2022-09-09T13:26:54;3.60;;;0.82;;
21543;SDS011;10933;50.754;11.508;2022-09-09T13:29:26;0.98;;;0.50;;
21543;SDS011;10933;50.754;11.508;2022-09-09T13:31:53;5.00;;;3.22;;
21543;SDS011;10933;50.754;11.508;2022-09-09T13:34:29;4.88;;;0.80;;
21543;SDS011;10933;50.754;11.508;2022-09-09T13:37:07;1.88;;;0.75;;
21543;SDS011;10933;50.754;11.508;2022-09-09T13:39:52;3.95;;;0.70;;
21543;SDS011;10933;50.754;11.508;2022-09-09T13:42:21;2.15;;;0.70;;
21543;SDS011;10933;50.754;11.508;2022-09-09T13:44:55;3.15;;;1.23;;
21543;SDS011;10933;50.754;11.508;2022-09-09T13:47:27;1.90;;;1.67;;
21543;SDS011;10933;50.754;11.508;2022-09-09T13:52:53;2.13;;;1.20;;
21543;SDS011;10933;50.754;11.508;2022-09-09T13:55:23;1.83;;;1.45;;
21543;SDS011;10933;50.754;11.508;2022-09-09T13:57:55;2.53;;;0.88;;
21543;SDS011;10933;50.754;11.508;2022-09-09T14:00:25;0.50;;;0.50;;
21543;SDS011;10933;50.754;11.508;2022-09-09T14:02:54;4.60;;;0.40;;
21543;SDS011;10933;50.754;11.508;2022-09-09T14:05:20;1.63;;;0.30;;
21543;SDS011;10933;50.754;11.508;2022-09-09T14:07:48;2.55;;;0.38;;
21543;SDS011;10933;50.754;11.508;2022-09-09T14:10:15;1.33;;;0.73;;
21543;SDS011;10933;50.754;11.508;2022-09-09T14:12:41;0.85;;;0.30;;
21543;SDS011;10933;50.754;11.508;2022-09-09T14:15:08;1.00;;;0.50;;
21543;SDS011;10933;50.754;11.508;2022-09-09T14:17:36;0.40;;;0.30;;
21543;SDS011;10933;50.754;11.508;2022-09-09T14:20:03;0.90;;;0.28;;
21543;SDS011;10933;50.754;11.508;2022-09-09T14:22:34;1.73;;;1.02;;
21543;SDS011;10933;50.754;11.508;2022-09-09T14:25:01;0.40;;;0.40;;
21543;SDS011;10933;50.754;11.508;2022-09-09T14:27:28;0.80;;;0.20;;
21543;SDS011;10933;50.754;11.508;2022-09-09T14:29:55;0.70;;;0.35;;
21543;SDS011;10933;50.754;11.508;2022-09-09T14:32:22;0.43;;;0.40;;
21543;SDS011;10933;50.754;11.508;2022-09-09T14:34:48;1.20;;;1.10;;
21543;SDS011;10933;50.754;11.508;2022-09-09T14:37:15;0.90;;;0.50;;
21543;SDS011;10933;50.754;11.508;2022-09-09T14:39:41;0.63;;;0.35;;
21543;SDS011;10933;50.754;11.508;2022-09-09T14:42:11;0.60;;;0.38;;
21543;SDS011;10933;50.754;11.508;2022-09-09T14:44:39;0.77;;;0.30;;
21543;SDS011;10933;50.754;11.508;2022-09-09T14:47:05;0.47;;;0.25;;
21543;SDS011;10933;50.754;11.508;2022-09-09T14:49:35;0.60;;;0.35;;
21543;SDS011;10933;50.754;11.508;2022-09-09T14:52:02;0.32;;;0.28;;
21543;SDS011;10933;50.754;11.508;2022-09-09T14:54:30;1.95;;;0.32;;
21543;SDS011;10933;50.754;11.508;2022-09-09T14:56:57;0.93;;;0.30;;
21543;SDS011;10933;50.754;11.508;2022-09-09T14:59:23;3.60;;;0.32;;
21543;SDS011;10933;50.754;11.508;2022-09-09T15:01:49;0.30;;;0.25;;
21543;SDS011;10933;50.754;11.508;2022-09-09T15:04:15;0.82;;;0.30;;
21543;SDS011;10933;50.754;11.508;2022-09-09T15:06:43;0.65;;;0.28;;
21543;SDS011;10933;50.754;11.508;2022-09-09T15:09:13;1.20;;;0.38;;
21543;SDS011;10933;50.754;11.508;2022-09-09T15:11:39;0.57;;;0.30;;
21543;SDS011;10933;50.754;11.508;2022-09-09T15:14:06;0.85;;;0.30;;
21543;SDS011;10933;50.754;11.508;2022-09-09T15:16:33;4.13;;;0.30;;
21543;SDS011;10933;50.754;11.508;2022-09-09T15:19:00;4.03;;;0.40;;
21543;SDS011;10933;50.754;11.508;2022-09-09T15:21:28;0.32;;;0.30;;
21543;SDS011;10933;50.754;11.508;2022-09-09T15:23:56;23.08;;;0.85;;
21543;SDS011;10933;50.754;11.508;2022-09-09T15:26:23;2.78;;;0.40;;
21543;SDS011;10933;50.754;11.508;2022-09-09T15:28:51;11.57;;;0.63;;
21543;SDS011;10933;50.754;11.508;2022-09-09T15:33:47;9.48;;;0.80;;
21543;SDS011;10933;50.754;11.508;2022-09-09T15:36:26;1.27;;;0.28;;
21543;SDS011;10933;50.754;11.508;2022-09-09T15:39:02;0.65;;;0.25;;
21543;SDS011;10933;50.754;11.508;2022-09-09T15:41:31;0.57;;;0.20;;
21543;SDS011;10933;50.754;11.508;2022-09-09T15:43:57;0.43;;;0.20;;
21543;SDS011;10933;50.754;11.508;2022-09-09T15:49:16;0.57;;;0.40;;
21543;SDS011;10933;50.754;11.508;2022-09-09T15:51:57;5.43;;;0.35;;
21543;SDS011;10933;50.754;11.508;2022-09-09T15:54:27;1.83;;;0.35;;
21543;SDS011;10933;50.754;11.508;2022-09-09T15:56:57;3.75;;;0.30;;
21543;SDS011;10933;50.754;11.508;2022-09-09T15:59:26;2.92;;;0.70;;
21543;SDS011;10933;50.754;11.508;2022-09-09T16:01:53;205.65;;;12.57;;
21543;SDS011;10933;50.754;11.508;2022-09-09T16:04:20;69.75;;;5.22;;
21543;SDS011;10933;50.754;11.508;2022-09-09T16:06:55;116.20;;;8.70;;
21543;SDS011;10933;50.754;11.508;2022-09-09T16:09:24;5.07;;;0.40;;
21543;SDS011;10933;50.754;11.508;2022-09-09T16:11:51;0.95;;;0.43;;
21543;SDS011;10933;50.754;11.508;2022-09-09T16:14:18;1.75;;;0.20;;
21543;SDS011;10933;50.754;11.508;2022-09-09T16:16:45;2.75;;;0.55;;
21543;SDS011;10933;50.754;11.508;2022-09-09T16:19:11;79.13;;;3.30;;
21543;SDS011;10933;50.754;11.508;2022-09-09T16:21:39;2.78;;;0.50;;
21543;SDS011;10933;50.754;11.508;2022-09-09T16:24:08;5.20;;;0.50;;
21543;SDS011;10933;50.754;11.508;2022-09-09T16:26:36;2.55;;;0.50;;
21543;SDS011;10933;50.754;11.508;2022-09-09T16:29:03;3.30;;;0.57;;
21543;SDS011;10933;50.754;11.508;2022-09-09T16:31:30;1.90;;;0.43;;
21543;SDS011;10933;50.754;11.508;2022-09-09T16:33:59;9.55;;;0.80;;
21543;SDS011;10933;50.754;11.508;2022-09-09T16:36:26;2.53;;;0.55;;
21543;SDS011;10933;50.754;11.508;2022-09-09T16:38:58;4.85;;;0.60;;
21543;SDS011;10933;50.754;11.508;2022-09-09T16:41:26;2.10;;;1.08;;
21543;SDS011;10933;50.754;11.508;2022-09-09T16:43:54;0.50;;;0.30;;
21543;SDS011;10933;50.754;11.508;2022-09-09T16:46:25;0.82;;;0.40;;
21543;SDS011;10933;50.754;11.508;2022-09-09T16:48:53;1.30;;;0.40;;
21543;SDS011;10933;50.754;11.508;2022-09-09T16:51:22;1.13;;;0.65;;
21543;SDS011;10933;50.754;11.508;2022-09-09T16:53:51;3.60;;;3.40;;
21543;SDS011;10933;50.754;11.508;2022-09-09T16:56:20;1.08;;;0.80;;
21543;SDS011;10933;50.754;11.508;2022-09-09T16:58:51;2.80;;;2.60;;
21543;SDS011;10933;50.754;11.508;2022-09-09T17:01:20;6.88;;;6.38;;
21543;SDS011;10933;50.754;11.508;2022-09-09T17:03:54;4.05;;;1.30;;
21543;SDS011;10933;50.754;11.508;2022-09-09T17:06:21;1.40;;;0.50;;
21543;SDS011;10933;50.754;11.508;2022-09-09T17:08:53;1.95;;;0.88;;
21543;SDS011;10933;50.754;11.508;2022-09-09T17:11:20;1.83;;;0.90;;
21543;SDS011;10933;50.754;11.508;2022-09-09T17:13:46;1.05;;;0.68;;
21543;SDS011;10933;50.754;11.508;2022-09-09T17:16:14;2.28;;;0.95;;
21543;SDS011;10933;50.754;11.508;2022-09-09T17:18:41;0.95;;;0.60;;
21543;SDS011;10933;50.754;11.508;2022-09-09T17:21:17;1.10;;;0.50;;
21543;SDS011;10933;50.754;11.508;2022-09-09T17:23:45;1.90;;;0.95;;
21543;SDS011;10933;50.754;11.508;2022-09-09T17:26:13;0.80;;;0.55;;
21543;SDS011;10933;50.754;11.508;2022-09-09T17:28:41;1.45;;;1.35;;